Time;durP1;ratioP1;P1;durP2;ratioP2;P2;SDS_P1;SDS_P2;PMS_P1;PMS_P2;Temp;Humidity;BMP_temperature;BMP_pressure;BME280_temperature;BME280_humidity;BME280_pressure;Samples;Min_cycle;Max_cycle;Signal;HPM_P1;HPM_P2
2023/07/10 00:01:28;;;;;;;17.35;11.45;;;19.70;99.90;;;-144.05;99.14;56859.47;5056558;28;20036;-85
2023/07/10 00:03:55;;;;;;;15.18;10.65;;;19.70;99.90;;;-144.05;99.13;56857.34;5061039;28;20213;-87
2023/07/10 00:06:22;;;;;;;18.52;12.70;;;19.70;99.90;;;-144.05;99.30;56853.09;5041933;28;20033;-87
2023/07/10 00:08:49;;;;;;;18.85;13.38;;;19.60;99.90;;;-144.05;99.12;56861.56;5059433;28;20025;-84
2023/07/10 00:11:28;;;;;;;14.90;11.18;;;19.60;99.90;;;-144.05;99.07;56867.94;5058747;28;20053;-84
2023/07/10 00:13:56;;;;;;;15.90;12.65;;;19.60;99.90;;;-144.05;98.92;56865.81;5058651;28;20039;-86
2023/07/10 00:16:24;;;;;;;15.00;12.48;;;19.50;99.90;;;-144.05;98.79;56857.34;5057796;28;20036;-86
2023/07/10 00:18:51;;;;;;;19.70;13.43;;;19.50;99.90;;;-144.05;98.98;56876.44;5058711;28;20028;-84
2023/07/10 00:21:18;;;;;;;16.40;11.20;;;19.50;99.90;;;-144.05;98.96;56867.94;5059244;28;20021;-86
2023/07/10 00:23:46;;;;;;;13.27;9.27;;;19.50;99.90;;;-144.05;98.88;56880.69;5056755;28;20500;-88
2023/07/10 00:26:21;;;;;;;18.35;10.65;;;19.50;99.90;;;-144.05;98.75;56867.94;5047291;28;20051;-86
2023/07/10 00:28:55;;;;;;;17.35;12.55;;;19.40;99.90;;;-144.05;98.69;56848.84;5076674;28;20051;-86
2023/07/10 00:31:24;;;;;;;13.10;10.13;;;19.40;99.90;;;-144.05;98.84;56863.69;5059346;28;20041;-87
2023/07/10 00:33:52;;;;;;;17.23;11.70;;;19.40;99.90;;;-144.05;98.82;56867.94;5060610;28;20037;-88
2023/07/10 00:36:40;;;;;;;19.20;11.07;;;19.30;99.90;;;-144.05;99.19;56853.09;5059522;28;20428;-86
2023/07/10 00:39:32;;;;;;;14.55;11.23;;;19.30;99.90;;;-144.05;99.05;56846.72;5076744;28;20503;-85
2023/07/10 00:42:15;;;;;;;13.55;10.40;;;19.30;99.90;;;-144.05;98.98;56867.94;5060175;28;20233;-85
2023/07/10 00:44:51;;;;;;;17.50;14.40;;;19.20;99.90;;;-144.05;99.14;56867.94;5077484;28;20067;-87
2023/07/10 00:47:41;;;;;;;22.23;15.73;;;19.20;99.90;;;-144.05;99.50;56863.69;5077314;28;20387;-87
2023/07/10 00:50:34;;;;;;;21.40;18.05;;;19.30;99.90;;;-144.05;99.68;56865.81;5058718;28;20044;-84
2023/07/10 00:53:10;;;;;;;17.60;13.90;;;19.30;99.90;;;-144.05;99.03;56865.81;5076743;28;20036;-85
2023/07/10 00:55:40;;;;;;;17.30;13.00;;;19.40;99.90;;;-144.05;99.11;56867.94;5077780;28;20028;-86
2023/07/10 00:58:37;;;;;;;16.67;14.88;;;19.40;99.90;;;-144.05;99.13;56846.72;5059069;28;20032;-85
2023/07/10 01:01:22;;;;;;;14.35;11.23;;;19.40;99.90;;;-144.05;99.39;56846.72;5077515;28;20020;-84
2023/07/10 01:03:53;;;;;;;14.88;11.07;;;19.40;99.90;;;-144.05;99.44;56874.31;5058704;28;20024;-86
2023/07/10 01:06:28;;;;;;;20.48;15.13;;;19.40;99.90;;;-144.05;99.45;56853.09;5058982;28;20032;-87
2023/07/10 01:09:00;;;;;;;14.93;11.52;;;19.40;99.90;;;-144.05;99.60;56870.06;5058430;28;20415;-88
2023/07/10 01:11:27;;;;;;;16.80;12.55;;;19.50;99.90;;;-144.05;99.62;56857.34;5058129;28;20040;-86
2023/07/10 01:13:56;;;;;;;25.50;18.63;;;19.60;99.90;;;-144.05;99.65;56880.69;5057239;28;20062;-86
2023/07/10 01:16:25;;;;;;;29.30;21.30;;;19.60;99.90;;;-144.05;100.00;56882.81;5074291;28;20037;-85
2023/07/10 01:18:53;;;;;;;31.55;21.67;;;19.60;99.90;;;-144.05;100.00;56882.81;5057158;28;20024;-86
2023/07/10 01:21:46;;;;;;;44.55;26.25;;;19.70;99.90;;;-144.05;100.00;56884.94;5057679;28;20017;-86
2023/07/10 01:24:12;;;;;;;29.05;20.20;;;19.70;99.90;;;-144.05;100.00;56908.31;5073036;28;20039;-87
2023/07/10 01:26:40;;;;;;;27.35;19.88;;;19.70;99.90;;;-144.05;99.78;56857.34;5076064;28;20056;-88
2023/07/10 01:29:22;;;;;;;33.50;22.92;;;19.80;99.90;;;-144.05;99.73;56895.56;5057870;28;20243;-87
2023/07/10 01:31:53;;;;;;;37.65;25.42;;;19.80;99.90;;;-144.05;100.00;56861.56;5074279;28;20050;-86
2023/07/10 01:34:31;;;;;;;37.03;25.60;;;19.80;99.90;;;-144.05;99.88;56876.44;5058357;28;20029;-87
2023/07/10 01:36:58;;;;;;;31.10;24.58;;;19.80;99.90;;;-144.05;99.47;56904.06;5074735;28;20477;-86
2023/07/10 01:39:41;;;;;;;28.85;22.48;;;19.80;99.90;;;-144.05;99.58;56884.94;5074112;28;20502;-86
2023/07/10 01:42:08;;;;;;;34.28;26.00;;;19.80;99.90;;;-144.05;99.75;56863.69;5074891;28;20033;-84
2023/07/10 01:44:42;;;;;;;30.30;23.15;;;19.80;99.90;;;-144.05;99.68;56884.94;5075461;28;20089;-86
2023/07/10 01:47:12;;;;;;;24.97;18.63;;;19.80;99.90;;;-144.05;99.51;56884.94;5073898;28;20039;-86
2023/07/10 01:49:55;;;;;;;24.92;19.45;;;19.80;99.90;;;-144.05;99.66;56880.69;5075167;28;20364;-85
2023/07/10 01:52:23;;;;;;;31.55;23.70;;;19.80;99.90;;;-144.05;99.63;56842.47;5056552;28;20024;-85
2023/07/10 01:54:50;;;;;;;30.17;20.42;;;19.80;99.90;;;-144.05;99.58;56870.06;5057037;28;20120;-84
2023/07/10 01:57:23;;;;;;;26.73;19.13;;;19.80;99.90;;;-144.05;99.55;56887.06;5061735;28;20132;-85
2023/07/10 01:59:50;;;;;;;24.83;20.40;;;19.80;99.90;;;-144.05;99.52;56872.19;5084716;28;20050;-83
2023/07/10 02:02:16;;;;;;;26.75;20.90;;;19.80;99.90;;;-144.05;99.45;56904.06;5084070;28;20056;-85
2023/07/10 02:04:42;;;;;;;27.77;19.95;;;19.80;99.90;;;-144.05;99.49;56878.56;5060337;28;20463;-85
2023/07/10 02:07:08;;;;;;;32.22;22.13;;;19.80;99.90;;;-144.05;99.38;56855.22;5075265;28;20186;-85
2023/07/10 02:09:34;;;;;;;37.85;27.02;;;19.80;99.90;;;-144.05;99.23;56887.06;5075140;28;20086;-85
2023/07/10 02:12:00;;;;;;;31.35;23.10;;;19.90;99.90;;;-144.05;99.13;56891.31;5072668;28;20028;-84
2023/07/10 02:14:29;;;;;;;30.77;21.77;;;19.80;99.90;;;-144.05;99.44;56870.06;5074559;28;20040;-85
2023/07/10 02:16:54;;;;;;;28.52;19.63;;;19.80;99.90;;;-144.05;99.11;56872.19;5056552;28;20060;-87
2023/07/10 02:19:21;;;;;;;20.75;15.20;;;19.80;99.90;;;-144.05;99.08;56859.47;5074423;28;20032;-85
2023/07/10 02:21:48;;;;;;;22.90;16.60;;;19.80;99.90;;;-144.05;98.99;56878.56;5072699;28;20487;-85
2023/07/10 02:24:14;;;;;;;28.45;19.77;;;19.80;99.90;;;-144.05;99.02;56870.06;5074134;28;20460;-86
2023/07/10 02:26:41;;;;;;;31.83;23.58;;;19.80;99.90;;;-144.05;98.88;56853.09;5073975;28;20488;-83
2023/07/10 02:29:07;;;;;;;30.35;20.90;;;19.70;99.90;;;-144.05;98.71;56874.31;5055581;28;20035;-84
2023/07/10 02:31:33;;;;;;;31.48;22.02;;;19.70;99.90;;;-144.05;98.45;56857.34;5072221;28;20032;-86
2023/07/10 02:33:59;;;;;;;35.60;22.67;;;19.70;99.90;;;-144.05;98.56;56897.69;5071680;28;20029;-85
2023/07/10 02:36:28;;;;;;;31.42;20.25;;;19.70;99.90;;;-144.05;98.46;56897.69;5055252;28;20386;-85
2023/07/10 02:38:55;;;;;;;31.80;19.55;;;19.70;99.90;;;-144.05;98.32;56891.31;5054790;28;20379;-84
2023/07/10 02:41:21;;;;;;;27.35;20.17;;;19.70;99.90;;;-144.05;98.32;56882.81;5071103;28;20032;-83
2023/07/10 02:43:47;;;;;;;26.63;19.42;;;19.60;99.90;;;-144.05;98.19;56916.81;5071547;28;20025;-84
2023/07/10 02:46:13;;;;;;;27.38;20.60;;;19.60;99.90;;;-144.05;98.23;56893.44;5070433;28;20115;-83
2023/07/10 02:48:39;;;;;;;31.48;21.35;;;19.60;99.90;;;-144.05;98.05;56884.94;5070754;28;20029;-82
2023/07/10 02:51:05;;;;;;;26.15;18.65;;;19.60;99.90;;;-144.05;97.70;56910.44;5054010;28;20035;-84
2023/07/10 02:53:32;;;;;;;27.23;17.10;;;19.60;99.90;;;-144.05;97.84;56870.06;5057912;28;20051;-87
2023/07/10 02:55:58;;;;;;;29.25;21.00;;;19.60;99.90;;;-144.05;97.75;56884.94;5076064;28;20052;-83
2023/07/10 02:58:24;;;;;;;26.00;17.95;;;19.60;99.90;;;-144.05;97.68;56882.81;5058156;28;20040;-84
2023/07/10 03:01:03;;;;;;;23.55;17.70;;;19.60;99.90;;;-144.05;97.92;56899.81;5058310;28;20027;-86
2023/07/10 03:03:30;;;;;;;21.80;18.13;;;19.60;99.90;;;-144.05;97.89;56874.31;5058400;28;20383;-85
2023/07/10 03:06:00;;;;;;;28.92;19.45;;;19.60;99.90;;;-144.05;98.00;56889.19;5059011;28;20036;-83
2023/07/10 03:08:28;;;;;;;21.73;16.88;;;19.60;99.90;;;-144.05;98.14;56859.47;5076605;28;20062;-84
2023/07/10 03:11:06;;;;;;;26.48;17.92;;;19.60;99.90;;;-144.05;98.08;56878.56;5058597;28;20368;-84
2023/07/10 03:13:32;;;;;;;26.63;17.33;;;19.60;99.90;;;-144.05;98.21;56872.19;5076697;28;20039;-83
2023/07/10 03:16:13;;;;;;;33.63;22.75;;;19.70;99.90;;;-144.05;97.97;56882.81;5076500;28;20036;-84
2023/07/10 03:18:39;;;;;;;24.92;18.80;;;19.60;99.90;;;-144.05;97.94;56878.56;5077004;28;20039;-83
2023/07/10 03:21:07;;;;;;;21.67;16.83;;;19.60;99.90;;;-144.05;98.00;56887.06;5076553;28;20028;-85
2023/07/10 03:23:34;;;;;;;31.67;21.13;;;19.70;99.90;;;-144.05;98.08;56878.56;5075314;28;20050;-85
2023/07/10 03:26:00;;;;;;;26.58;20.35;;;19.60;99.90;;;-144.05;97.93;56857.34;5071562;28;20434;-84
2023/07/10 03:28:30;;;;;;;26.50;19.42;;;19.60;99.90;;;-144.05;97.92;56884.94;5038888;28;20036;-85
2023/07/10 03:30:58;;;;;;;30.63;20.27;;;19.60;99.90;;;-144.05;97.73;56901.94;5056711;28;20040;-86
2023/07/10 03:33:24;;;;;;;31.08;21.52;;;19.60;99.90;;;-144.05;97.72;56882.81;5039544;28;20039;-83
2023/07/10 03:36:07;;;;;;;33.88;20.40;;;19.60;99.90;;;-144.05;97.72;56876.44;5055935;28;20345;-84
2023/07/10 03:38:34;;;;;;;31.17;19.80;;;19.60;99.90;;;-144.05;97.49;56904.06;5039473;28;20404;-83
2023/07/10 03:41:00;;;;;;;27.10;18.42;;;19.60;99.90;;;-144.05;97.61;56910.44;5056955;28;20021;-83
2023/07/10 03:43:27;;;;;;;27.10;18.45;;;19.60;99.90;;;-144.05;97.49;56908.31;5056400;28;20021;-84
2023/07/10 03:45:56;;;;;;;34.55;22.77;;;19.60;99.90;;;-144.05;97.25;56872.19;5039511;28;20400;-85
2023/07/10 03:48:22;;;;;;;30.20;21.10;;;19.50;99.90;;;-144.05;97.13;56880.69;5056484;28;20094;-84
2023/07/10 03:50:48;;;;;;;31.20;23.35;;;19.50;99.90;;;-144.05;97.25;56895.56;5057431;28;20032;-85
2023/07/10 03:53:14;;;;;;;34.70;24.80;;;19.50;99.90;;;-144.05;97.11;56887.06;5058831;28;20029;-85
2023/07/10 03:55:53;;;;;;;38.70;25.77;;;19.50;99.90;;;-144.05;96.94;56889.19;5058101;28;20648;-86
2023/07/10 03:58:30;;;;;;;43.72;30.92;;;19.50;99.90;;;-144.05;96.91;56897.69;5058067;28;20029;-83
2023/07/10 04:00:59;;;;;;;33.92;26.80;;;19.50;99.90;;;-144.05;96.82;56904.06;5059010;28;20025;-85
2023/07/10 04:03:30;;;;;;;34.97;23.80;;;19.50;99.90;;;-144.05;96.54;56895.56;5058514;28;20025;-83
2023/07/10 04:05:58;;;;;;;32.80;22.70;;;19.40;99.90;;;-144.05;95.92;56904.06;5058952;28;20037;-84
2023/07/10 04:08:37;;;;;;;31.63;22.15;;;19.40;99.90;;;-144.05;95.91;56887.06;5059116;28;20036;-86
2023/07/10 04:11:10;;;;;;;30.13;23.38;;;19.40;99.90;;;-144.05;96.01;56870.06;5058663;28;20025;-83
2023/07/10 04:13:37;;;;;;;34.40;24.90;;;19.40;99.90;;;-144.05;95.84;56893.44;5059359;28;20033;-84
2023/07/10 04:16:24;;;;;;;40.85;24.40;;;19.40;99.90;;;-144.05;95.80;56914.69;5059060;28;20104;-84
2023/07/10 04:18:53;;;;;;;28.85;21.10;;;19.30;99.90;;;-144.05;95.78;56867.94;5041204;28;20451;-84
2023/07/10 04:21:24;;;;;;;33.30;21.98;;;19.30;99.90;;;-144.05;95.88;56910.44;5058046;28;20025;-83
2023/07/10 04:23:51;;;;;;;35.80;23.45;;;19.40;99.90;;;-144.05;95.86;56882.81;5059499;28;20028;-82
2023/07/10 04:26:33;;;;;;;37.25;25.45;;;19.30;99.90;;;-144.05;95.59;56861.56;5067255;28;20032;-86
2023/07/10 04:29:05;;;;;;;31.67;21.17;;;19.30;99.90;;;-144.05;95.73;56887.06;5078526;28;20115;-84
2023/07/10 04:31:33;;;;;;;41.53;25.73;;;19.40;99.90;;;-144.05;95.79;56878.56;5065773;28;20028;-83
2023/07/10 04:34:00;;;;;;;32.63;23.15;;;19.30;99.90;;;-144.05;95.89;56893.44;5062519;28;20143;-84
2023/07/10 04:36:26;;;;;;;31.65;23.27;;;19.30;99.90;;;-144.05;95.88;56895.56;5080032;28;20028;-84
2023/07/10 04:38:52;;;;;;;26.45;18.50;;;19.30;99.90;;;-144.05;95.81;56895.56;5082757;28;20025;-83
2023/07/10 04:41:23;;;;;;;35.17;22.42;;;19.40;99.90;;;-144.05;95.75;56865.81;5080613;28;20407;-83
2023/07/10 04:43:50;;;;;;;28.15;20.38;;;19.40;99.90;;;-144.05;95.65;56891.31;5080902;28;20471;-85
2023/07/10 04:46:18;;;;;;;28.25;17.98;;;19.30;99.90;;;-144.05;95.45;56897.69;5079988;28;20076;-86
2023/07/10 04:48:45;;;;;;;24.88;17.55;;;19.30;99.90;;;-144.05;95.41;56878.56;5082862;28;20024;-85
2023/07/10 04:51:15;;;;;;;25.42;18.77;;;19.30;99.90;;;-144.05;95.91;56908.31;5092699;28;20033;-87
2023/07/10 04:53:41;;;;;;;28.30;19.50;;;19.40;99.90;;;-144.05;95.71;56897.69;5074499;28;20387;-82
2023/07/10 04:56:11;;;;;;;22.05;17.92;;;19.40;99.90;;;-144.05;95.30;56893.44;5092728;28;20028;-82
2023/07/10 04:58:56;;;;;;;19.38;14.48;;;19.40;99.90;;;-144.05;95.38;56882.81;5080545;28;20107;-84
2023/07/10 05:01:32;;;;;;;21.88;16.40;;;19.40;99.90;;;-144.05;95.49;56895.56;5077248;28;20028;-85
2023/07/10 05:03:58;;;;;;;24.98;17.08;;;19.40;99.90;;;-144.05;95.42;56884.94;5077562;28;20021;-86
2023/07/10 05:06:25;;;;;;;20.58;15.02;;;19.30;99.90;;;-144.05;95.48;56897.69;5058935;28;20415;-86
2023/07/10 05:08:58;;;;;;;20.27;15.07;;;19.40;99.90;;;-144.05;95.46;56887.06;5077074;28;20035;-85
2023/07/10 05:11:29;;;;;;;22.88;18.20;;;19.40;99.90;;;-144.05;95.79;56891.31;5059421;28;20031;-85
2023/07/10 05:13:55;;;;;;;25.85;16.27;;;19.40;99.90;;;-144.05;95.90;56906.19;5077111;28;20029;-83
2023/07/10 05:16:23;;;;;;;24.00;15.43;;;19.40;99.90;;;-144.05;95.92;56904.06;5075126;28;20051;-84
2023/07/10 05:18:49;;;;;;;23.05;17.38;;;19.40;99.90;;;-144.05;96.03;56914.69;5076801;28;20025;-84
2023/07/10 05:21:16;;;;;;;28.45;19.38;;;19.40;99.90;;;-144.05;96.37;56897.69;5076550;28;20020;-84
2023/07/10 05:23:42;;;;;;;34.55;19.73;;;19.50;99.90;;;-144.05;95.83;56901.94;5075465;28;20395;-85
2023/07/10 05:26:16;;;;;;;28.80;19.75;;;19.40;99.90;;;-144.05;95.97;56904.06;5077702;28;20031;-84
2023/07/10 05:28:42;;;;;;;25.33;18.17;;;19.40;99.90;;;-144.05;95.73;56914.69;5077198;28;20059;-84
2023/07/10 05:31:11;;;;;;;26.30;19.10;;;19.40;99.90;;;-144.05;96.55;56901.94;5077030;28;20032;-83
2023/07/10 05:33:40;;;;;;;24.98;17.02;;;19.40;99.90;;;-144.05;95.96;56884.94;5059577;28;20078;-85
2023/07/10 05:36:11;;;;;;;28.88;19.15;;;19.40;99.90;;;-144.05;95.81;56882.81;5058928;28;20048;-83
2023/07/10 05:38:38;;;;;;;24.50;17.75;;;19.50;99.90;;;-144.05;96.54;56887.06;5059188;28;20027;-84
2023/07/10 05:41:06;;;;;;;20.35;13.50;;;19.40;99.90;;;-144.05;94.52;56882.81;5076843;28;20052;-87
2023/07/10 05:43:34;;;;;;;19.15;13.75;;;19.30;99.90;;;-144.05;94.32;56878.56;5077111;28;20029;-81
2023/07/10 05:46:01;;;;;;;18.85;14.30;;;19.20;99.90;;;-144.05;94.24;56882.81;5074740;28;20089;-82
2023/07/10 05:48:28;;;;;;;17.20;11.90;;;19.20;99.90;;;-144.05;94.43;56895.56;5076572;28;20534;-85
2023/07/10 05:50:55;;;;;;;18.50;11.85;;;19.30;99.90;;;-144.05;94.54;56887.06;5058524;28;20039;-83
2023/07/10 05:53:22;;;;;;;16.10;11.77;;;19.30;99.90;;;-144.05;94.52;56882.81;5058325;28;20139;-85
2023/07/10 05:55:53;;;;;;;21.98;14.65;;;19.20;99.90;;;-144.05;94.55;56887.06;5059741;28;20020;-82
2023/07/10 05:58:23;;;;;;;21.73;13.25;;;19.30;99.90;;;-144.05;94.67;56893.44;5076766;28;20025;-84
2023/07/10 06:00:56;;;;;;;20.58;13.43;;;19.30;99.90;;;-144.05;94.50;56891.31;5078116;28;20028;-82
2023/07/10 06:03:23;;;;;;;14.98;11.05;;;19.40;99.90;;;-144.05;94.56;56908.31;5059031;28;20046;-83
2023/07/10 06:06:04;;;;;;;15.93;11.65;;;19.40;99.90;;;-144.05;94.59;56901.94;5076376;28;20032;-83
2023/07/10 06:08:33;;;;;;;20.55;14.95;;;19.40;99.90;;;-144.05;94.52;56891.31;5059207;28;20557;-85
2023/07/10 06:10:59;;;;;;;16.38;11.45;;;19.50;99.90;;;-144.05;94.47;56893.44;5077052;28;20024;-83
2023/07/10 06:13:26;;;;;;;17.83;13.30;;;19.50;99.90;;;-144.05;94.19;56887.06;5077786;28;20039;-82
2023/07/10 06:15:57;;;;;;;19.00;11.52;;;19.60;99.90;;;-144.05;94.18;56904.06;5077380;28;20029;-84
2023/07/10 06:18:25;;;;;;;22.02;13.90;;;19.60;99.90;;;-144.05;93.86;56893.44;5077060;28;20048;-80
2023/07/10 06:20:59;;;;;;;22.83;16.77;;;19.60;99.90;;;-144.05;93.43;56921.06;5076626;28;20048;-82
2023/07/10 06:23:29;;;;;;;16.98;12.57;;;19.60;99.90;;;-144.05;93.41;56897.69;5076553;28;20111;-84
2023/07/10 06:25:59;;;;;;;19.95;14.93;;;19.70;99.90;;;-144.05;93.16;56889.19;5072797;28;20028;-85
2023/07/10 06:28:25;;;;;;;19.02;11.80;;;19.70;99.90;;;-144.05;92.79;56931.66;5059208;28;20033;-83
2023/07/10 06:31:09;;;;;;;20.35;13.75;;;19.70;99.90;;;-144.05;92.38;56918.94;5058836;28;20043;-85
2023/07/10 06:33:37;;;;;;;18.35;12.48;;;19.80;99.90;;;-144.05;92.03;56893.44;5060897;28;20043;-83
2023/07/10 06:36:05;;;;;;;22.65;12.70;;;19.80;99.90;;;-144.05;91.92;56906.19;5060744;28;20033;-82
2023/07/10 06:38:33;;;;;;;18.95;12.45;;;19.80;99.90;;;-144.05;91.96;56918.94;5061453;28;20017;-81
2023/07/10 06:40:59;;;;;;;22.55;12.68;;;19.90;99.90;;;-144.05;90.75;56887.06;5042511;28;20365;-83
2023/07/10 06:43:25;;;;;;;18.45;11.50;;;19.80;99.90;;;-144.05;90.37;56906.19;5060718;28;20024;-84
2023/07/10 06:45:54;;;;;;;17.17;8.65;;;19.80;99.90;;;-144.05;89.86;56914.69;5060816;28;20029;-84
2023/07/10 06:48:20;;;;;;;13.05;8.40;;;19.70;99.90;;;-144.05;87.16;56908.31;5061532;28;20100;-82
2023/07/10 06:50:55;;;;;;;10.02;7.32;;;19.70;99.90;;;-144.05;86.55;56901.94;5059767;28;20049;-82
2023/07/10 06:53:23;;;;;;;11.10;5.60;;;19.70;99.90;;;-144.05;86.14;56904.06;5061420;28;20066;-84
2023/07/10 06:56:00;;;;;;;10.00;6.28;;;19.60;99.90;;;-144.05;84.15;56923.19;5060355;28;20146;-83
2023/07/10 06:58:28;;;;;;;10.10;5.63;;;19.60;99.90;;;-144.05;84.10;56901.94;5061001;28;20032;-82
2023/07/10 07:00:54;;;;;;;7.53;5.03;;;19.70;99.90;;;-144.05;84.13;56925.28;5060395;28;20025;-82
2023/07/10 07:03:21;;;;;;;8.07;4.97;;;19.70;99.90;;;-144.05;84.35;56904.06;5059441;28;20029;-81
2023/07/10 07:05:47;;;;;;;8.45;5.38;;;20.00;99.90;;;-144.05;83.66;56918.94;5070995;28;20032;-82
2023/07/10 07:08:14;;;;;;;8.82;4.95;;;20.10;99.90;;;-144.05;82.43;56893.44;5046291;28;20477;-84
2023/07/10 07:10:41;;;;;;;9.80;5.57;;;20.20;99.90;;;-144.05;81.25;56921.06;5042680;28;20029;-83
2023/07/10 07:13:09;;;;;;;8.55;5.18;;;20.40;99.90;;;-144.05;80.39;56925.28;5043304;28;20577;-85
2023/07/10 07:15:35;;;;;;;7.72;4.18;;;20.50;99.90;;;-144.05;79.05;56929.53;5060261;28;20101;-83
2023/07/10 07:18:03;;;;;;;9.68;4.30;;;20.60;99.90;;;-144.05;78.46;56927.41;5061283;28;20025;-83
2023/07/10 07:20:31;;;;;;;8.50;4.53;;;20.60;99.90;;;-144.05;78.38;56916.81;5042804;28;20112;-81
2023/07/10 07:22:58;;;;;;;6.68;3.58;;;20.60;99.90;;;-144.05;78.09;56931.66;5060679;28;20445;-81
2023/07/10 07:25:27;;;;;;;10.30;4.78;;;20.60;99.90;;;-144.05;77.97;56901.94;5062000;28;20033;-81
2023/07/10 07:27:53;;;;;;;8.77;4.38;;;20.60;99.90;;;-144.05;77.36;56904.06;5081329;28;20024;-84
2023/07/10 07:30:19;;;;;;;9.60;5.05;;;20.70;99.90;;;-144.05;77.36;56923.19;5079904;28;20480;-84
2023/07/10 07:32:47;;;;;;;7.13;4.30;;;20.70;99.90;;;-144.05;77.32;56935.91;5078196;28;20043;-82
2023/07/10 07:35:13;;;;;;;8.45;3.67;;;20.80;99.90;;;-144.05;74.54;56927.41;5061721;28;20039;-83
2023/07/10 07:37:39;;;;;;;6.18;3.38;;;20.90;99.90;;;-144.05;74.09;56933.78;5078071;28;20031;-84
2023/07/10 07:40:06;;;;;;;6.82;3.28;;;20.90;99.90;;;-144.05;72.88;56921.06;5061162;28;20025;-82
2023/07/10 07:42:32;;;;;;;4.53;3.20;;;21.00;99.90;;;-144.05;71.67;56959.28;5065827;28;20068;-83
2023/07/10 07:44:58;;;;;;;6.10;3.35;;;21.10;99.90;;;-144.05;70.49;56938.03;5061812;28;20059;-83
2023/07/10 07:47:27;;;;;;;7.82;3.50;;;21.10;99.90;;;-144.05;69.97;56931.66;5079650;28;20380;-84
2023/07/10 07:49:53;;;;;;;13.73;4.30;;;21.20;99.90;;;-144.05;68.12;56935.91;5079438;28;20442;-83
2023/07/10 07:52:19;;;;;;;6.22;3.60;;;21.30;99.90;;;-144.05;67.25;56925.28;5078349;28;20024;-83
2023/07/10 07:54:45;;;;;;;8.07;4.20;;;21.70;99.90;;;-144.05;65.67;56959.28;5061154;28;20032;-83
2023/07/10 07:57:11;;;;;;;5.80;3.78;;;22.10;99.90;;;-144.05;63.97;56961.41;5061849;28;20505;-87
2023/07/10 07:59:37;;;;;;;5.72;3.75;;;22.70;99.90;;;-144.05;61.99;56961.41;5079052;28;20134;-82
2023/07/10 08:02:03;;;;;;;8.48;3.72;;;23.20;99.90;;;-144.05;60.36;56978.41;5078574;28;20082;-82
2023/07/10 08:04:29;;;;;;;7.38;3.72;;;23.50;99.90;;;-144.05;58.29;57012.38;5078127;28;20028;-82
2023/07/10 08:06:57;;;;;;;5.70;3.92;;;24.10;99.90;;;-144.05;56.93;57012.38;5060784;28;20036;-82
2023/07/10 08:09:23;;;;;;;6.68;3.97;;;24.40;99.90;;;-144.05;56.55;57010.25;5061315;28;20024;-82
2023/07/10 08:11:48;;;;;;;8.75;4.13;;;24.40;99.90;;;-144.05;56.06;57031.50;5079799;28;20432;-83
2023/07/10 08:14:14;;;;;;;6.82;3.67;;;24.60;99.90;;;-144.05;55.28;57006.00;5081092;28;20040;-82
2023/07/10 08:16:40;;;;;;;7.63;4.00;;;24.60;99.90;;;-144.05;55.53;57027.25;5061582;28;20036;-81
2023/07/10 08:19:06;;;;;;;4.25;3.67;;;24.50;99.90;;;-144.05;55.35;57027.25;5079464;28;20379;-85
2023/07/10 08:21:32;;;;;;;5.85;3.67;;;24.50;99.90;;;-144.05;55.63;57018.75;5078480;28;20343;-82
2023/07/10 08:23:57;;;;;;;6.28;4.95;;;24.40;99.90;;;-144.05;55.30;56997.50;5061916;28;20024;-84
2023/07/10 08:26:23;;;;;;;9.60;5.25;;;24.10;99.90;;;-144.05;57.70;57008.13;5079840;28;20021;-82
2023/07/10 08:28:50;;;;;;;6.50;4.60;;;24.00;99.90;;;-144.05;58.10;57031.50;5079468;28;20040;-82
2023/07/10 08:31:18;;;;;;;7.63;3.83;;;24.10;99.90;;;-144.05;56.28;57027.25;5077453;28;20543;-81
2023/07/10 08:33:44;;;;;;;7.75;5.03;;;24.20;99.90;;;-144.05;55.40;57027.25;5077711;28;20488;-82
2023/07/10 08:36:10;;;;;;;8.40;5.18;;;24.20;99.90;;;-144.05;56.15;57014.50;5077515;28;20159;-81
2023/07/10 08:38:38;;;;;;;8.40;4.85;;;24.40;99.90;;;-144.05;54.82;56993.25;5078837;28;20020;-83
2023/07/10 08:41:21;;;;;;;11.32;4.47;;;24.50;99.90;;;-144.05;53.94;57016.63;5061234;28;20048;-80
2023/07/10 08:43:48;;;;;;;5.75;3.70;;;24.80;99.90;;;-144.05;52.36;57044.25;5080176;28;20025;-82
2023/07/10 08:46:33;;;;;;;5.22;3.60;;;25.30;99.90;;;-144.05;50.07;57040.00;5081258;28;20044;-82
2023/07/10 08:49:25;;;;;;;5.50;4.13;;;25.80;99.90;;;-144.05;49.16;57044.25;5080027;28;20025;-82
2023/07/10 08:52:40;;;;;;;8.77;4.35;;;25.90;99.90;;;-144.05;49.71;57061.22;5076696;28;20028;-81
2023/07/10 08:55:27;;;;;;;5.05;3.63;;;26.00;99.90;;;-144.05;48.50;57073.97;5049642;28;20032;-82
2023/07/10 08:58:03;;;;;;;5.97;3.53;;;26.40;99.90;;;-144.05;46.79;57112.22;5074777;28;20518;-83
2023/07/10 09:00:43;;;;;;;7.47;3.60;;;26.70;99.90;;;-144.05;47.52;57090.97;5075911;28;20033;-82
2023/07/10 09:03:39;;;;;;;6.78;3.03;;;26.30;99.90;;;-144.05;45.87;57065.47;5075737;28;20338;-80
2023/07/10 09:06:15;;;;;;;5.55;2.92;;;26.20;99.90;;;-144.05;47.97;57042.13;5076082;28;20463;-81
2023/07/10 09:08:47;;;;;;;5.50;2.90;;;25.60;99.90;;;-144.05;47.52;57035.75;5057016;28;20344;-83
2023/07/10 09:11:15;;;;;;;6.60;2.72;;;25.50;99.90;;;-144.05;48.77;57050.63;5057248;28;20458;-81
2023/07/10 09:14:00;;;;;;;5.05;2.90;;;25.40;99.90;;;-144.05;47.67;57073.97;5075825;28;20056;-81
2023/07/10 09:16:27;;;;;;;6.28;2.53;;;25.60;99.90;;;-144.05;45.11;57059.09;5076249;28;20024;-79
2023/07/10 09:19:14;;;;;;;5.25;2.78;;;26.00;99.90;;;-144.05;45.50;57084.59;5076010;28;20020;-81
2023/07/10 09:21:41;;;;;;;7.30;3.55;;;26.50;99.90;;;-144.05;44.90;57084.59;5075735;28;20024;-79
2023/07/10 09:24:22;;;;;;;6.07;2.35;;;26.90;99.90;;;-144.05;46.14;57103.72;5075426;28;20016;-82
2023/07/10 09:26:50;;;;;;;6.72;3.05;;;26.90;99.90;;;-144.05;44.96;57120.72;5063542;28;20036;-82
2023/07/10 09:29:28;;;;;;;8.10;3.15;;;27.30;99.90;;;-144.05;42.96;57135.56;5054557;28;20033;-81
2023/07/10 09:32:16;;;;;;;5.45;2.53;;;27.50;99.90;;;-144.05;42.11;57154.69;5054658;28;20032;-83
2023/07/10 09:34:59;;;;;;;5.75;2.70;;;27.70;99.90;;;-144.05;43.05;57156.81;5053493;28;20036;-81
2023/07/10 09:37:36;;;;;;;8.43;3.60;;;27.80;99.90;;;-144.05;39.62;57148.31;5065762;28;20451;-79
2023/07/10 09:40:45;;;;;;;5.03;3.22;;;27.70;99.90;;;-144.05;42.17;57093.09;5041550;28;20042;-82
2023/07/10 09:43:24;;;;;;;7.65;3.17;;;27.10;99.90;;;-144.05;41.53;57114.34;5055392;28;20151;-81
2023/07/10 09:45:58;;;;;;;8.57;3.38;;;27.30;99.90;;;-144.05;41.31;57082.47;5055073;28;20028;-80
2023/07/10 09:48:29;;;;;;;7.82;3.10;;;27.20;99.90;;;-144.05;42.01;57110.09;5054947;28;20495;-81
2023/07/10 09:51:02;;;;;;;6.20;3.00;;;27.70;99.90;;;-144.05;40.11;57146.19;5053023;28;20060;-79
2023/07/10 09:53:45;;;;;;;6.18;2.95;;;27.90;99.90;;;-144.05;41.07;57107.97;5054908;28;20090;-81
2023/07/10 09:56:23;;;;;;;5.78;2.70;;;27.60;99.90;;;-144.05;40.72;57133.44;5037643;28;20096;-81
2023/07/10 09:58:54;;;;;;;4.93;2.47;;;27.90;99.90;;;-144.05;40.61;57161.06;5055165;28;20056;-83
2023/07/10 10:01:27;;;;;;;6.07;2.90;;;27.90;99.90;;;-144.05;38.67;57150.44;5035982;28;20080;-83
2023/07/10 10:03:55;;;;;;;5.53;2.20;;;28.10;99.90;;;-144.05;39.56;57120.72;5054067;28;20123;-82
2023/07/10 10:06:30;;;;;;;6.80;2.45;;;27.80;99.90;;;-144.05;37.81;57139.81;5054385;28;20107;-80
2023/07/10 10:08:56;;;;;;;2.42;1.63;;;27.60;99.90;;;-144.05;39.81;57131.31;5055222;28;20040;-82
2023/07/10 10:11:43;;;;;;;6.32;2.20;;;27.70;99.90;;;-144.05;39.32;57152.56;5059636;28;20033;-78
2023/07/10 10:14:22;;;;;;;6.18;2.25;;;27.60;99.90;;;-144.05;38.24;57150.44;5036484;28;20025;-81